Terminal Aerodrome Forecast
Issued by NWS

Home | Current Version | Previous Version | Text Only | Print | Product List | Glossary On
Versions: 1 2 3 4 5 6 7 8 9 10 11 12 13 14 15 16 17
000
FTUS43 KJKL 012320
TAFSJS
TAF
KSJS 012320Z 0200/0224 VRB03KT P6SM TSRA BKN050CB
     FM020200 22004KT P6SM VCSH BKN040
     FM021000 VRB03KT 3SM BR BKN010
     FM021300 VRB03KT 5SM SHRA BKN020
     FM021500 22005KT P6SM SHRA BKN040
     FM022300 00000KT 5SM SHRA OVC025=

USA.gov is the U.S. government's official web portal to all federal, state and local government web resources and services.